Amargosa Valley, Nevada Weather observations

Data are for observation ending at time listed.
 Day   Time    Ave.   Ave.  Ave.  Vector   Max.   Stn.    Total    Solar   Ave.  
  of    of     Air    Rel.  Wind   Wind    Wind   Baro.  Precip.   Rad.    Soil  
Year   Day     Temp.  Hum.  Speed  Dir.    Gust   Pres.                    Temp. 
2014   (PST)    F      %     mph   deg.    mph     mb.     in.     W/m2     F   
------------------------------------------------------------------------------
 355   12:40   53.3    56    1.8   170      4.8   934.0    0.00     380    48.6
 355   12:50   53.8    54    1.7   215      5.8   933.9    0.00     308    48.8
 355   13:00   53.3    56    2.4   204      5.7   933.8    0.00     324    49.0
 355   13:10   54.1    54    2.5   175      5.6   933.7    0.00     389    49.2
 355   13:20   54.8    53    1.5   144      4.7   933.7    0.00     348    49.4
 355   13:30   54.6    53    1.5   220      4.5   933.6    0.00     245    49.6
 355   13:40   54.8    53    3.0   209      7.4   933.3    0.00     325    49.8
 355   13:50   54.1    54    4.8   201      6.8   933.2    0.00     254    50.0
 355   14:00   53.9    54    3.6   203      6.4   933.3    0.00     268    50.2
 355   14:10   54.2    54    2.6   179      5.4   933.2    0.00     191    50.4
 355   14:20   54.2    54    2.3   140      4.3   933.1    0.00     168    50.6
 355   14:30   54.2    54    3.1   151      5.6   933.0    0.00     163    50.8
 355   14:40   53.7    55    3.3   179      5.0   932.8    0.00     129    51.0
 355   14:50   53.7    55    4.1   141      6.5   932.9    0.00     118    51.2
 355   15:00   53.6    55    3.6   166      6.0   932.8    0.00     111    51.3
 355   15:10   53.6    55    3.4   181      5.0   932.8    0.00      92    51.4
 355   15:20   53.5    56    3.0   173      4.8   932.9    0.00      80    51.6
 355   15:30   53.5    56    2.1   165      3.7   933.0    0.00      68    51.7
 355   15:40   53.5    56    1.9   140      3.1   932.9    0.00      59    51.8
 355   15:50   53.5    55    1.8   106      2.8   933.1    0.00      45    51.9
 355   16:00   53.5    56    0.4   211      2.0   932.9    0.00      33    52.0
 355   16:10   52.8    58    1.6   175      3.2   932.9    0.00      20    52.1
 355   16:20   52.6    59    0.5   132      2.3   933.0    0.00      11    52.1
 355   16:30   52.1    61    0.7   162      1.5   933.0    0.00       4    52.2
 355   16:40   51.4    62    1.7   186      2.3   932.9    0.00       3    52.2
 355   16:50   50.7    64    0.3   174      1.5   932.9    0.00       3    52.2
 355   17:00   50.6    64    1.0    87      2.6   932.9    0.00       2    52.2
 355   17:10   50.4    65    0.9   139      2.9   932.9    0.00       0    52.3
 355   17:20   49.7    66    1.6   203      4.2   932.8    0.00       1    52.3
 355   17:30   50.0    65    0.8   148      2.4   932.8    0.00       1    52.3
 355   17:40   49.8    65    0.6   282      1.6   932.9    0.00       1    52.3
 355   17:50   49.2    66    1.1   179      2.8   933.2    0.00       1    52.3
 355   18:00   48.5    68    1.7    79      4.9   933.3    0.00       1    52.2
 355   18:10   48.1    69    0.3   313      1.7   933.2    0.00       1    52.2
 355   18:20   48.0    70    0.6   104      3.8   933.2    0.00       1    52.2
 355   18:30   47.2    72    1.2    69      4.2   933.2    0.00       0    52.2
 355   18:40   46.1    73    0.1   354      0.6   932.9    0.00       0    52.2
 355   18:50   45.5    75    1.2   107      2.0   933.0    0.00       0    52.1
 355   19:00   45.7    76    0.3    42      2.7   933.1    0.00       0    52.1
 355   19:10   45.7    75    0.4    60      2.3   933.1    0.00       0    52.1
 355   19:20   45.0    76    0.7   118      2.4   933.1    0.00       0    52.1
 355   19:30   44.3    78    0.1    69      1.9   933.1    0.00       0    52.0
 355   19:40   44.2    78    0.2    21      1.8   933.1    0.00       0    52.0
 355   19:50   44.1    78    0.6    80      4.1   933.2    0.00       0    51.9
 355   20:00   44.4    77    0.5    31      2.8   933.4    0.00       0    51.9
 355   20:10   44.6    76    1.0    28      3.1   933.3    0.00       0    51.8
 355   20:20   44.8    75    0.4    19      1.8   933.3    0.00       0    51.8
 355   20:30   44.4    76    0.3    10      1.4   933.5    0.00       0    51.7
 355   20:40   43.8    78    1.0    73      4.3   933.6    0.00       0    51.7
 355   20:50   43.6    78    0.9    34      3.4   933.7    0.00       0    51.6
 355   21:00   43.4    78    2.3    49      4.2   933.7    0.00       0    51.6
 355   21:10   43.8    78    1.5    49      3.4   933.7    0.00       0    51.5
 355   21:20   43.4    78    0.9    27      3.4   933.7    0.00       0    51.4
 355   21:30   42.5    80    2.8    36      4.3   933.7    0.00       0    51.4
 355   21:40   42.5    81    1.7    38      3.1   933.7    0.00       0    51.3
 355   21:50   42.2    81    1.3    29      3.1   933.7    0.00       0    51.3
 355   22:00   41.7    82    0.8    22      3.2   933.6    0.00       0    51.2
 355   22:10   41.5    82    0.5   350      1.6   933.6    0.00       0    51.2
 355   22:20   41.3    83    0.1   330      1.8   933.6    0.00       0    51.1
 355   22:30   41.1    83    0.2     4      1.4   933.5    0.00       0    51.0
 355   22:40   40.7    83    1.2    23      3.0   933.4    0.00       0    51.0
 355   22:50   40.6    84    0.8    34      2.9   933.4    0.00       0    50.9
 355   23:00   41.1    83    1.6    59      4.4   933.4    0.00       0    50.8
 355   23:10   40.8    83    0.7   100      3.7   933.3    0.00       0    50.8
 355   23:20   41.4    82    2.4    91      4.9   933.4    0.00       0    50.7
 355   23:30   42.2    81    1.8    85      3.2   933.4    0.00       0    50.6
 355   23:40   42.4    80    0.2    45      1.3   933.2    0.00       0    50.6
 355   23:50   41.7    82    0.5    57      1.4   933.2    0.00       0    50.5
 356    0:00   42.4    81    1.4    81      2.6   933.2    0.00       0    50.5
 356    0:10   42.8    80    2.0    83      4.4   933.1    0.00       0    50.4
 356    0:20   42.3    81    4.4    84      6.8   933.1    0.00       0    50.3
 356    0:30   42.1    83    3.3    84      5.4   933.1    0.00       0    50.3
 356    0:40   42.5    82    1.6    62      2.9   933.0    0.00       0    50.2
 356    0:50   41.4    83    2.1    53      4.4   933.1    0.00       0    50.1
 356    1:00   41.4    84    0.9    39      3.2   933.0    0.00       0    50.1
 356    1:10   40.7    84    0.2    19      1.5   932.9    0.00       0    50.0
 356    1:20   39.8    85    0.9    21      2.8   932.9    0.00       0    50.0
 356    1:30   39.2    86    1.4    25      3.9   933.1    0.00       0    49.9
 356    1:40   38.6    86    0.6    20      1.5   933.2    0.00       0    49.9
 356    1:50   38.4    87    1.2    21      2.7   933.2    0.00       0    49.8
 356    2:00   37.9    87    0.6   354      1.5   933.1    0.00       0    49.7
 356    2:10   37.3    87    0.4   352      1.2   933.1    0.00       0    49.7
 356    2:20   36.8    88    0.3   353      1.2   932.9    0.00       0    49.6
 356    2:30   36.8    89    0.2   352      0.9   933.0    0.00       0    49.6
 356    2:40   37.0    89    0.6    12      1.7   933.0    0.00       0    49.5
 356    2:50   36.8    88    0.4    16      1.8   932.9    0.00       0    49.5
 356    3:00   37.1    89    0.4     5      0.9   932.8    0.00       0    49.4
 356    3:10   37.3    88    0.4     6      1.1   932.8    0.00       0    49.3
 356    3:20   37.5    88    0.4   358      1.7   932.8    0.00       0    49.3
 356    3:30   38.0    88    1.8   317      4.4   932.8    0.00       0    49.2
 356    3:40   38.7    88    1.3   322      4.5   932.7    0.00       0    49.1
 356    3:50   41.6    82    2.2   295      6.0   932.6    0.00       0    49.1
 356    4:00   39.8    82    0.8   202      3.0   932.7    0.00       0    49.0
 356    4:10   42.7    81    1.8   315      8.5   932.7    0.00       0    48.9
 356    4:20   49.9    64    3.1   321      7.7   932.7    0.00       0    48.9
 356    4:30   54.6    54    6.8   311     12.1   932.6    0.00       0    48.8
 356    4:40   56.0    51    8.2   308     13.7   932.6    0.00       0    48.8
 356    4:50   55.3    53    5.9   314     12.3   932.6    0.00       0    48.7
 356    5:00   53.7    56    2.9   326      6.8   932.8    0.00       0    48.7
 356    5:10   53.1    57    6.0   310     10.1   932.8    0.00       0    48.7
 356    5:20   53.2    57    2.9   320      6.0   932.8    0.00       1    48.7
 356    5:30   51.0    61    2.0   324      4.3   932.9    0.00       1    48.7
 356    5:40   50.5    62    2.5   316      7.3   933.0    0.00       1    48.6
 356    5:50   52.8    57    6.4   305     10.3   933.0    0.00       1    48.6
 356    6:00   52.2    59    4.3   317      9.9   933.0    0.00       0    48.6
 356    6:10   51.2    61    3.7   317      6.6   932.9    0.00       1    48.6
 356    6:20   51.7    60    2.9   317      6.0   932.8    0.00       0    48.6
 356    6:30   50.9    61    2.6   312      8.4   932.7    0.00       1    48.6
 356    6:40   49.6    64    0.5   335      1.9   932.8    0.00       3    48.6
 356    6:50   50.2    62    1.3   320      4.1   932.7    0.00       3    48.6
 356    7:00   50.4    62    2.0   317      4.0   932.6    0.00       3    48.6
 356    7:10   49.3    64    0.5   316      1.7   932.6    0.00      15    48.6
 356    7:20   47.7    67    1.0   245      6.7   932.7    0.00      37    48.6
 356    7:30   48.6    65    0.9   280      6.1   932.6    0.00      59    48.5
 356    7:40   50.8    60    1.2   307      5.0   932.7    0.00      87    48.5
 356    7:50   51.9    59    1.6   322      4.1   932.7    0.00     120    48.5
 356    8:00   53.0    57    1.6   327      5.8   932.9    0.00     148    48.5
 356    8:10   54.0    56    2.1   325      5.0   933.1    0.00     173    48.5
 356    8:20   54.8    55    2.8   316      6.1   933.3    0.00     157    48.5
 356    8:30   55.5    54    3.2   314      6.4   933.3    0.00      35    48.5
 356    8:40   56.4    53    4.1   309      9.5   933.3    0.00     232    48.5
 356    8:50   57.1    52    4.8   306      8.7   933.4    0.00     272    48.5
 356    9:00   58.7    49    3.6   308      8.6   933.5    0.00     294    48.5
 356    9:10   60.2    45    6.2   306     11.5   933.4    0.00     318    48.5
 356    9:20   61.2    42    6.1   303     11.3   933.5    0.00     340    48.6
 356    9:30   61.9    41    5.9   306     14.0   933.6    0.00     361    48.6
 356    9:40   62.6    40    6.0   306     11.4   933.7    0.00     380    48.7
 356    9:50   63.0    39    8.1   304     18.3   933.7    0.00     399    48.7
 356   10:00   63.3    38   10.9   305     17.6   933.7    0.00     417    48.8
 356   10:10   63.6    38   10.1   306     16.8   933.7    0.00     432    48.9
 356   10:20   64.3    37    8.9   306     15.2   933.7    0.00     446    49.0
 356   10:30   65.1    36    7.8   307     15.2   933.7    0.00     460    49.1
 356   10:40   66.1    34    6.2   311     13.2   933.5    0.00     472    49.2
 356   10:50   66.7    33    6.7   311     15.3   933.5    0.00     482    49.4
 356   11:00   66.5    33    7.3   306     12.9   933.4    0.00     491    49.5
 356   11:10   66.6    33    6.0   302     11.0   933.3    0.00     498    49.7
 356   11:20   67.2    32    4.2   306     10.4   933.1    0.00     504    49.9
 356   11:30   67.8    32    6.4   310     12.2   932.8    0.00     508    50.1
 356   11:40   68.6    30    4.3   316     11.5   932.7    0.00     511    50.3
 356   11:50   69.3    29    3.3   317      7.7   932.5    0.00     513    50.5
 356   12:00   69.5    28    6.1   306     13.2   932.3    0.00     514    50.7
 356   12:10   69.9    28    8.0   304     16.1   932.0    0.00     513    50.9
 356   12:20   71.2    27    6.1   305     14.5   931.7    0.00     508    51.1
 356   12:30   71.3    26    7.6   309     14.2   931.6    0.00     500    51.4

Return to Amargosa Valley, Nevada graphs page.


Western Regional Climate Center,wrcc@dri.edu